sensor_id;sensor_type;location;lat;lon;timestamp;pressure;altitude;pressure_sealevel;temperature;humidity
39699;BME280;25372;50.582;12.250;2023-04-27T00:03:36;100067.72;;;1.63;74.05
39699;BME280;25372;50.582;12.250;2023-04-27T00:13:58;100061.13;;;1.51;75.28
39699;BME280;25372;50.582;12.250;2023-04-27T00:24:19;100056.72;;;1.14;73.66
39699;BME280;25372;50.582;12.250;2023-04-27T00:34:41;100065.56;;;0.59;77.46
39699;BME280;25372;50.582;12.250;2023-04-27T00:45:02;100065.66;;;0.54;80.02
39699;BME280;25372;50.582;12.250;2023-04-27T00:55:26;100082.72;;;0.13;79.39
39699;BME280;25372;50.582;12.250;2023-04-27T01:05:48;100077.91;;;-0.09;79.86
39699;BME280;25372;50.582;12.250;2023-04-27T01:16:10;100082.88;;;0.04;80.94
39699;BME280;25372;50.582;12.250;2023-04-27T01:26:34;100085.84;;;0.32;80.72
39699;BME280;25372;50.582;12.250;2023-04-27T01:36:55;100085.66;;;0.43;79.62
39699;BME280;25372;50.582;12.250;2023-04-27T01:47:17;100093.81;;;0.20;79.05
39699;BME280;25372;50.582;12.250;2023-04-27T01:57:39;100103.84;;;-0.15;80.19
39699;BME280;25372;50.582;12.250;2023-04-27T02:08:01;100104.34;;;0.07;79.20
39699;BME280;25372;50.582;12.250;2023-04-27T02:18:22;100116.16;;;0.22;78.23
39699;BME280;25372;50.582;12.250;2023-04-27T02:28:45;100122.22;;;0.21;77.52
39699;BME280;25372;50.582;12.250;2023-04-27T02:39:06;100115.25;;;-0.32;81.00
39699;BME280;25372;50.582;12.250;2023-04-27T02:49:31;100119.88;;;-0.54;81.67
39699;BME280;25372;50.582;12.250;2023-04-27T02:59:53;100108.25;;;-0.88;81.65
39699;BME280;25372;50.582;12.250;2023-04-27T03:10:15;100118.75;;;-1.03;83.64
39699;BME280;25372;50.582;12.250;2023-04-27T03:20:36;100120.63;;;-1.19;83.44
39699;BME280;25372;50.582;12.250;2023-04-27T03:30:58;100144.59;;;-1.09;84.08
39699;BME280;25372;50.582;12.250;2023-04-27T03:41:19;100158.63;;;-1.40;84.50
39699;BME280;25372;50.582;12.250;2023-04-27T03:51:40;100171.41;;;-1.29;84.41
39699;BME280;25372;50.582;12.250;2023-04-27T04:02:02;100175.59;;;-1.19;84.58
39699;BME280;25372;50.582;12.250;2023-04-27T04:12:25;100185.84;;;-1.09;84.53
39699;BME280;25372;50.582;12.250;2023-04-27T04:22:46;100189.19;;;-1.03;84.45
39699;BME280;25372;50.582;12.250;2023-04-27T04:33:08;100193.13;;;-0.66;83.43
39699;BME280;25372;50.582;12.250;2023-04-27T04:43:29;100201.53;;;-0.51;83.56
39699;BME280;25372;50.582;12.250;2023-04-27T04:53:51;100202.78;;;-0.13;82.38
39699;BME280;25372;50.582;12.250;2023-04-27T05:04:11;100214.81;;;1.00;79.56
39699;BME280;25372;50.582;12.250;2023-04-27T05:14:34;100213.97;;;1.43;74.30
39699;BME280;25372;50.582;12.250;2023-04-27T05:24:55;100209.97;;;1.72;75.57
39699;BME280;25372;50.582;12.250;2023-04-27T05:35:17;100213.69;;;2.37;72.39
39699;BME280;25372;50.582;12.250;2023-04-27T05:45:38;100218.63;;;3.18;69.48
39699;BME280;25372;50.582;12.250;2023-04-27T05:56:00;100216.09;;;4.35;64.90
39699;BME280;25372;50.582;12.250;2023-04-27T06:06:22;100209.31;;;4.83;63.21
39699;BME280;25372;50.582;12.250;2023-04-27T06:16:44;100202.03;;;5.18;64.01
39699;BME280;25372;50.582;12.250;2023-04-27T06:27:05;100202.91;;;5.19;62.35
39699;BME280;25372;50.582;12.250;2023-04-27T06:37:27;100209.44;;;5.31;62.63
39699;BME280;25372;50.582;12.250;2023-04-27T06:47:48;100204.94;;;6.28;58.85
39699;BME280;25372;50.582;12.250;2023-04-27T06:58:10;100212.34;;;6.17;59.10
39699;BME280;25372;50.582;12.250;2023-04-27T07:08:31;100217.19;;;6.49;59.53
39699;BME280;25372;50.582;12.250;2023-04-27T07:18:52;100221.50;;;6.27;58.28
39699;BME280;25372;50.582;12.250;2023-04-27T07:29:13;100216.91;;;6.12;59.83
39699;BME280;25372;50.582;12.250;2023-04-27T07:39:41;100223.47;;;5.98;60.63
39699;BME280;25372;50.582;12.250;2023-04-27T07:50:02;100224.72;;;6.34;60.35
39699;BME280;25372;50.582;12.250;2023-04-27T08:00:26;100228.19;;;6.78;59.32
39699;BME280;25372;50.582;12.250;2023-04-27T08:10:47;100239.50;;;7.20;57.65
39699;BME280;25372;50.582;12.250;2023-04-27T08:21:09;100229.13;;;8.16;55.08
39699;BME280;25372;50.582;12.250;2023-04-27T08:31:29;100230.88;;;8.15;49.69
39699;BME280;25372;50.582;12.250;2023-04-27T08:41:53;100233.59;;;8.50;46.25
39699;BME280;25372;50.582;12.250;2023-04-27T08:52:15;100218.59;;;9.90;44.64
39699;BME280;25372;50.582;12.250;2023-04-27T09:02:43;100214.50;;;10.33;39.14
39699;BME280;25372;50.582;12.250;2023-04-27T09:13:04;100212.09;;;11.05;43.50
39699;BME280;25372;50.582;12.250;2023-04-27T09:23:27;100218.13;;;10.62;44.32
39699;BME280;25372;50.582;12.250;2023-04-27T09:33:54;100199.78;;;9.66;44.09
39699;BME280;25372;50.582;12.250;2023-04-27T09:44:16;100207.78;;;9.47;46.39
39699;BME280;25372;50.582;12.250;2023-04-27T09:54:37;100190.47;;;10.71;42.19
39699;BME280;25372;50.582;12.250;2023-04-27T10:05:24;100183.47;;;9.93;42.23
39699;BME280;25372;50.582;12.250;2023-04-27T10:15:48;100193.72;;;10.60;44.77
39699;BME280;25372;50.582;12.250;2023-04-27T10:26:10;100186.47;;;9.37;43.25
39699;BME280;25372;50.582;12.250;2023-04-27T10:36:35;100198.19;;;10.12;42.96
39699;BME280;25372;50.582;12.250;2023-04-27T10:46:59;100193.16;;;10.23;41.75
39699;BME280;25372;50.582;12.250;2023-04-27T10:57:21;100190.84;;;10.18;41.66
39699;BME280;25372;50.582;12.250;2023-04-27T11:07:43;100178.91;;;11.19;41.96
39699;BME280;25372;50.582;12.250;2023-04-27T11:18:04;100181.81;;;11.29;41.88
39699;BME280;25372;50.582;12.250;2023-04-27T11:28:26;100190.19;;;11.07;41.37
39699;BME280;25372;50.582;12.250;2023-04-27T11:38:47;100194.06;;;11.72;41.78
39699;BME280;25372;50.582;12.250;2023-04-27T11:49:09;100196.31;;;11.78;39.31
39699;BME280;25372;50.582;12.250;2023-04-27T11:59:30;100199.19;;;11.46;40.66
39699;BME280;25372;50.582;12.250;2023-04-27T12:09:52;100195.75;;;12.02;38.17
39699;BME280;25372;50.582;12.250;2023-04-27T12:20:13;100206.88;;;11.35;38.94
39699;BME280;25372;50.582;12.250;2023-04-27T12:30:35;100199.56;;;11.96;39.76
39699;BME280;25372;50.582;12.250;2023-04-27T12:40:57;100215.69;;;12.47;38.96
39699;BME280;25372;50.582;12.250;2023-04-27T12:51:19;100198.81;;;11.23;43.91
39699;BME280;25372;50.582;12.250;2023-04-27T13:01:40;100188.47;;;11.49;40.33
39699;BME280;25372;50.582;12.250;2023-04-27T13:12:03;100193.69;;;10.91;40.74
39699;BME280;25372;50.582;12.250;2023-04-27T13:22:23;100189.78;;;11.56;40.62
39699;BME280;25372;50.582;12.250;2023-04-27T13:32:46;100194.28;;;12.11;41.57
39699;BME280;25372;50.582;12.250;2023-04-27T13:43:07;100174.56;;;11.47;40.70
39699;BME280;25372;50.582;12.250;2023-04-27T13:53:28;100174.38;;;12.07;40.29
39699;BME280;25372;50.582;12.250;2023-04-27T14:03:49;100166.03;;;12.94;38.44
39699;BME280;25372;50.582;12.250;2023-04-27T14:14:12;100171.47;;;12.11;38.95
39699;BME280;25372;50.582;12.250;2023-04-27T14:24:33;100158.78;;;11.89;39.70
39699;BME280;25372;50.582;12.250;2023-04-27T14:34:56;100155.09;;;14.01;37.23
39699;BME280;25372;50.582;12.250;2023-04-27T14:45:16;100142.81;;;12.47;38.43
39699;BME280;25372;50.582;12.250;2023-04-27T14:55:41;100147.13;;;13.89;36.60
39699;BME280;25372;50.582;12.250;2023-04-27T15:06:04;100162.38;;;12.43;37.68
39699;BME280;25372;50.582;12.250;2023-04-27T15:16:27;100159.00;;;12.28;41.00
39699;BME280;25372;50.582;12.250;2023-04-27T15:26:48;100155.41;;;11.45;41.50
39699;BME280;25372;50.582;12.250;2023-04-27T15:37:11;100156.38;;;11.44;39.77
39699;BME280;25372;50.582;12.250;2023-04-27T15:47:32;100157.84;;;11.63;42.00
39699;BME280;25372;50.582;12.250;2023-04-27T15:57:55;100140.19;;;11.65;41.19
39699;BME280;25372;50.582;12.250;2023-04-27T16:08:16;100133.47;;;11.31;42.77
39699;BME280;25372;50.582;12.250;2023-04-27T16:18:38;100130.16;;;10.84;42.52
39699;BME280;25372;50.582;12.250;2023-04-27T16:28:59;100113.97;;;11.07;42.19
39699;BME280;25372;50.582;12.250;2023-04-27T16:39:24;100114.25;;;11.02;42.55
39699;BME280;25372;50.582;12.250;2023-04-27T16:49:45;100112.41;;;9.98;42.88
39699;BME280;25372;50.582;12.250;2023-04-27T17:00:08;100122.50;;;10.20;43.72
39699;BME280;25372;50.582;12.250;2023-04-27T17:10:29;100132.06;;;10.97;42.11
39699;BME280;25372;50.582;12.250;2023-04-27T17:20:52;100127.13;;;10.47;44.23
39699;BME280;25372;50.582;12.250;2023-04-27T17:31:13;100138.47;;;9.52;44.12
39699;BME280;25372;50.582;12.250;2023-04-27T17:41:35;100144.31;;;8.57;50.33
39699;BME280;25372;50.582;12.250;2023-04-27T17:51:56;100141.53;;;7.49;55.49
39699;BME280;25372;50.582;12.250;2023-04-27T18:02:18;100144.19;;;7.28;53.21
39699;BME280;25372;50.582;12.250;2023-04-27T18:12:38;100154.81;;;7.05;52.92
39699;BME280;25372;50.582;12.250;2023-04-27T18:23:01;100167.81;;;6.22;57.13
39699;BME280;25372;50.582;12.250;2023-04-27T18:33:22;100168.22;;;5.66;64.64
39699;BME280;25372;50.582;12.250;2023-04-27T18:43:44;100190.94;;;5.13;66.69
39699;BME280;25372;50.582;12.250;2023-04-27T18:54:05;100198.66;;;4.91;64.98
39699;BME280;25372;50.582;12.250;2023-04-27T19:04:27;100205.97;;;4.54;69.26
39699;BME280;25372;50.582;12.250;2023-04-27T19:14:48;100219.13;;;4.50;72.10
39699;BME280;25372;50.582;12.250;2023-04-27T19:25:10;100211.47;;;4.16;69.64
39699;BME280;25372;50.582;12.250;2023-04-27T19:35:31;100210.00;;;4.63;65.81
39699;BME280;25372;50.582;12.250;2023-04-27T19:45:53;100219.03;;;4.51;66.24
39699;BME280;25372;50.582;12.250;2023-04-27T19:56:14;100195.56;;;3.97;69.88
39699;BME280;25372;50.582;12.250;2023-04-27T20:06:36;100198.69;;;4.09;70.92
39699;BME280;25372;50.582;12.250;2023-04-27T20:16:59;100190.78;;;3.55;72.23
39699;BME280;25372;50.582;12.250;2023-04-27T20:27:21;100195.03;;;3.57;73.04
39699;BME280;25372;50.582;12.250;2023-04-27T20:37:42;100182.56;;;3.69;72.10
39699;BME280;25372;50.582;12.250;2023-04-27T20:48:05;100189.78;;;3.59;70.70
39699;BME280;25372;50.582;12.250;2023-04-27T20:58:27;100197.69;;;3.24;72.81
39699;BME280;25372;50.582;12.250;2023-04-27T21:08:49;100194.47;;;3.46;73.50
39699;BME280;25372;50.582;12.250;2023-04-27T21:19:10;100177.00;;;3.21;73.89
39699;BME280;25372;50.582;12.250;2023-04-27T21:29:35;100173.06;;;2.73;75.67
39699;BME280;25372;50.582;12.250;2023-04-27T21:39:56;100172.16;;;2.75;76.45
39699;BME280;25372;50.582;12.250;2023-04-27T21:50:18;100169.00;;;2.62;76.84
39699;BME280;25372;50.582;12.250;2023-04-27T22:00:39;100156.16;;;2.58;76.72
39699;BME280;25372;50.582;12.250;2023-04-27T22:11:01;100164.50;;;1.98;77.24
39699;BME280;25372;50.582;12.250;2023-04-27T22:21:22;100157.47;;;2.03;78.20
39699;BME280;25372;50.582;12.250;2023-04-27T22:31:44;100136.88;;;1.97;78.45
39699;BME280;25372;50.582;12.250;2023-04-27T22:42:05;100162.78;;;2.35;77.61
39699;BME280;25372;50.582;12.250;2023-04-27T22:52:27;100162.38;;;2.16;78.30
39699;BME280;25372;50.582;12.250;2023-04-27T23:02:51;100155.28;;;1.86;79.90
39699;BME280;25372;50.582;12.250;2023-04-27T23:13:13;100156.72;;;1.59;79.33
39699;BME280;25372;50.582;12.250;2023-04-27T23:23:34;100143.34;;;1.38;80.11
39699;BME280;25372;50.582;12.250;2023-04-27T23:33:56;100138.53;;;1.21;80.92
39699;BME280;25372;50.582;12.250;2023-04-27T23:44:18;100132.56;;;1.16;81.61
39699;BME280;25372;50.582;12.250;2023-04-27T23:54:40;100118.41;;;0.90;81.27
